createdAt,value
2024-04-18T00:00:23.279Z,94428.00
2024-04-18T00:01:23.416Z,94428.00
2024-04-18T00:02:23.449Z,94428.00
2024-04-18T00:03:23.606Z,94427.00
2024-04-18T00:04:23.693Z,94428.00
2024-04-18T00:05:23.799Z,94426.00
2024-04-18T00:06:23.842Z,94427.00
2024-04-18T00:07:23.884Z,94426.00
2024-04-18T00:08:23.954Z,94425.00
2024-04-18T00:09:24.096Z,94426.00
2024-04-18T00:10:24.155Z,94425.00
2024-04-18T00:11:24.304Z,94422.00
2024-04-18T00:12:24.368Z,94422.00
2024-04-18T00:13:24.418Z,94421.00
2024-04-18T00:14:24.520Z,94421.00
2024-04-18T00:15:24.637Z,94419.00
2024-04-18T00:16:24.706Z,94418.00
2024-04-18T00:17:24.890Z,94420.00
2024-04-18T00:18:24.963Z,94419.00
2024-04-18T00:19:24.979Z,94419.00
2024-04-18T00:20:25.074Z,94417.00
2024-04-18T00:21:25.175Z,94416.00
2024-04-18T00:22:25.253Z,94415.00
2024-04-18T00:23:25.347Z,94415.00
2024-04-18T00:24:25.503Z,94414.00
2024-04-18T00:25:25.483Z,94412.00
2024-04-18T00:26:25.588Z,94414.00
2024-04-18T00:27:25.695Z,94411.00
2024-04-18T00:28:25.755Z,94414.00
2024-04-18T00:29:25.866Z,94412.00
2024-04-18T00:30:25.961Z,94408.00
2024-04-18T00:31:26.044Z,94409.00
2024-04-18T00:32:26.149Z,94410.00
2024-04-18T00:33:26.311Z,94407.00
2024-04-18T00:34:26.308Z,94406.00
2024-04-18T00:35:26.413Z,94408.00
2024-04-18T00:36:26.473Z,94409.00
2024-04-18T00:37:26.556Z,94408.00
2024-04-18T00:38:26.669Z,94412.00
2024-04-18T00:39:26.834Z,94408.00
2024-04-18T00:40:26.813Z,94408.00
2024-04-18T00:41:26.932Z,94407.00
2024-04-18T00:42:27.102Z,94408.00
2024-04-18T00:43:27.080Z,94409.00
2024-04-18T00:44:27.193Z,94410.00
2024-04-18T00:45:27.318Z,94409.00
2024-04-18T00:46:27.410Z,94410.00
2024-04-18T00:47:27.574Z,94406.00
2024-04-18T00:48:27.744Z,94409.00
2024-04-18T00:49:27.674Z,94409.00
2024-04-18T00:50:27.731Z,94411.00
2024-04-18T00:51:27.864Z,94409.00
2024-04-18T00:52:27.905Z,94409.00
2024-04-18T00:53:27.998Z,94410.00
2024-04-18T00:54:28.144Z,94410.00
2024-04-18T00:55:28.157Z,94411.00
2024-04-18T00:56:28.290Z,94411.00
2024-04-18T00:57:28.372Z,94411.00
2024-04-18T00:58:28.483Z,94411.00
2024-04-18T00:59:28.569Z,94409.00
2024-04-18T01:00:28.683Z,94409.00
2024-04-18T01:01:28.787Z,94410.00
2024-04-18T01:02:28.816Z,94409.00
2024-04-18T01:03:28.954Z,94410.00
2024-04-18T01:04:29.074Z,94410.00
2024-04-18T01:05:29.075Z,94410.00
2024-04-18T01:06:29.213Z,94410.00
2024-04-18T01:07:29.282Z,94411.00
2024-04-18T01:08:29.345Z,94412.00
2024-04-18T01:09:29.486Z,94415.00
2024-04-18T01:10:29.544Z,94414.00
2024-04-18T01:11:29.642Z,94415.00
2024-04-18T01:12:29.837Z,94415.00
2024-04-18T01:13:29.827Z,94414.00
2024-04-18T01:14:29.939Z,94417.00
2024-04-18T01:15:30.100Z,94414.00
2024-04-18T01:16:30.178Z,94417.00
2024-04-18T01:17:30.277Z,94414.00
2024-04-18T01:18:30.289Z,94417.00
2024-04-18T01:19:30.387Z,94417.00
2024-04-18T01:20:30.450Z,94416.00
2024-04-18T01:21:30.523Z,94418.00
2024-04-18T01:22:30.620Z,94415.00
2024-04-18T01:23:30.735Z,94417.00
2024-04-18T01:24:30.932Z,94418.00
2024-04-18T01:25:31.018Z,94417.00
2024-04-18T01:26:31.035Z,94416.00
2024-04-18T01:27:31.093Z,94418.00
2024-04-18T01:28:31.178Z,94418.00
2024-04-18T01:29:31.278Z,94418.00
2024-04-18T01:30:31.423Z,94418.00
2024-04-18T01:31:31.484Z,94417.00
2024-04-18T01:32:31.569Z,94416.00
2024-04-18T01:33:31.694Z,94415.00
2024-04-18T01:34:31.967Z,94416.00
2024-04-18T01:35:31.798Z,94415.00
2024-04-18T01:36:31.950Z,94414.00
2024-04-18T01:37:32.015Z,94414.00
2024-04-18T01:38:32.106Z,94415.00
2024-04-18T01:39:32.330Z,94413.00
2024-04-18T01:40:34.798Z,94413.00
2024-04-18T01:41:32.298Z,94414.00
2024-04-18T01:42:32.320Z,94413.00
2024-04-18T01:43:32.289Z,94412.00
2024-04-18T01:44:32.293Z,94414.00
2024-04-18T01:45:32.328Z,94412.00
2024-04-18T01:46:32.314Z,94410.00
2024-04-18T01:47:32.340Z,94407.00
2024-04-18T01:48:32.373Z,94409.00
2024-04-18T01:49:32.334Z,94408.00
2024-04-18T01:50:32.304Z,94408.00
2024-04-18T01:51:32.342Z,94409.00
2024-04-18T01:52:32.301Z,94410.00
2024-04-18T01:53:32.305Z,94406.00
2024-04-18T01:54:32.351Z,94411.00
2024-04-18T01:55:32.340Z,94410.00
2024-04-18T01:56:32.339Z,94410.00
2024-04-18T01:57:32.348Z,94408.00
2024-04-18T01:58:32.324Z,94410.00
2024-04-18T01:59:32.314Z,94411.00
2024-04-18T02:00:32.408Z,94413.00
2024-04-18T02:01:32.395Z,94412.00
2024-04-18T02:02:32.327Z,94412.00
2024-04-18T02:03:32.405Z,94411.00
2024-04-18T02:04:32.414Z,94409.00
2024-04-18T02:05:32.327Z,94411.00
2024-04-18T02:06:32.369Z,94409.00
2024-04-18T02:07:32.327Z,94408.00
2024-04-18T02:08:32.330Z,94407.00
2024-04-18T02:09:32.362Z,94405.00
2024-04-18T02:10:32.342Z,94407.00
2024-04-18T02:11:32.335Z,94405.00
2024-04-18T02:12:32.364Z,94404.00
2024-04-18T02:13:32.346Z,94405.00
2024-04-18T02:14:32.352Z,94403.00
2024-04-18T02:15:32.420Z,94406.00
2024-04-18T02:16:32.357Z,94406.00
2024-04-18T02:17:32.414Z,94407.00
2024-04-18T02:18:32.434Z,94408.00
2024-04-18T02:19:32.372Z,94407.00
2024-04-18T02:20:32.362Z,94409.00
2024-04-18T02:21:32.356Z,94406.00
2024-04-18T02:22:32.378Z,94407.00
2024-04-18T02:23:32.462Z,94406.00
2024-04-18T02:24:32.540Z,94408.00
2024-04-18T02:25:32.612Z,94409.00
2024-04-18T02:26:32.682Z,94409.00
2024-04-18T02:27:32.794Z,94407.00
2024-04-18T02:28:32.817Z,94408.00
2024-04-18T02:29:32.919Z,94409.00
2024-04-18T02:30:33.027Z,94408.00
2024-04-18T02:31:33.055Z,94409.00
2024-04-18T02:32:33.261Z,94410.00
2024-04-18T02:33:33.318Z,94411.00
2024-04-18T02:34:33.384Z,94413.00
2024-04-18T02:35:33.384Z,94412.00
2024-04-18T02:36:33.498Z,94413.00
2024-04-18T02:37:33.554Z,94410.00
2024-04-18T02:38:33.631Z,94413.00
2024-04-18T02:39:33.876Z,94411.00
2024-04-18T02:40:33.817Z,94412.00
2024-04-18T02:41:33.895Z,94414.00
2024-04-18T02:42:34.021Z,94414.00
2024-04-18T02:43:34.028Z,94415.00
2024-04-18T02:44:34.098Z,94414.00
2024-04-18T02:45:34.248Z,94416.00
2024-04-18T02:46:34.278Z,94416.00
2024-04-18T02:47:34.598Z,94415.00
2024-04-18T02:48:34.673Z,94417.00
2024-04-18T02:49:34.519Z,94415.00
2024-04-18T02:50:34.620Z,94415.00
2024-04-18T02:51:34.677Z,94413.00
2024-04-18T02:52:34.762Z,94412.00
2024-04-18T02:53:34.816Z,94416.00
2024-04-18T02:54:34.965Z,94416.00
2024-04-18T02:55:35.057Z,94416.00
2024-04-18T02:56:35.109Z,94418.00
2024-04-18T02:57:35.230Z,94417.00
2024-04-18T02:58:35.265Z,94418.00
2024-04-18T02:59:35.319Z,94419.00
2024-04-18T03:00:35.485Z,94418.00
2024-04-18T03:01:35.549Z,94420.00
2024-04-18T03:02:35.704Z,94420.00
2024-04-18T03:03:35.747Z,94420.00
2024-04-18T03:04:35.802Z,94420.00
2024-04-18T03:05:35.881Z,94416.00
2024-04-18T03:06:35.984Z,94418.00
2024-04-18T03:07:36.062Z,94419.00
2024-04-18T03:08:36.121Z,94417.00
2024-04-18T03:09:36.192Z,94416.00
2024-04-18T03:10:36.277Z,94415.00
2024-04-18T03:11:36.486Z,94417.00
2024-04-18T03:12:36.452Z,94416.00
2024-04-18T03:13:36.531Z,94418.00
2024-04-18T03:14:36.609Z,94415.00
2024-04-18T03:15:36.713Z,94415.00
2024-04-18T03:16:36.781Z,94417.00
2024-04-18T03:17:36.922Z,94417.00
2024-04-18T03:18:37.061Z,94418.00
2024-04-18T03:19:37.036Z,94417.00
2024-04-18T03:20:37.125Z,94418.00
2024-04-18T03:21:37.214Z,94418.00
2024-04-18T03:22:37.293Z,94420.00
2024-04-18T03:23:37.402Z,94419.00
2024-04-18T03:24:37.562Z,94421.00
2024-04-18T03:25:37.574Z,94420.00
2024-04-18T03:26:37.745Z,94420.00
2024-04-18T03:27:37.826Z,94422.00
2024-04-18T03:28:37.867Z,94422.00
2024-04-18T03:29:37.925Z,94421.00
2024-04-18T03:30:38.053Z,94421.00
2024-04-18T03:31:38.126Z,94424.00
2024-04-18T03:32:38.352Z,94424.00
2024-04-18T03:33:38.308Z,94425.00
2024-04-18T03:34:38.403Z,94427.00
2024-04-18T03:35:38.514Z,94426.00
2024-04-18T03:36:38.589Z,94426.00
2024-04-18T03:37:38.894Z,94427.00
2024-04-18T03:38:38.768Z,94426.00
2024-04-18T03:39:38.920Z,94426.00
2024-04-18T03:40:38.950Z,94427.00
2024-04-18T03:41:39.054Z,94427.00
2024-04-18T03:42:39.226Z,94428.00
2024-04-18T03:43:39.230Z,94428.00
2024-04-18T03:44:39.327Z,94428.00
2024-04-18T03:45:39.459Z,94428.00
2024-04-18T03:46:39.477Z,94427.00
2024-04-18T03:47:39.596Z,94429.00
2024-04-18T03:48:39.771Z,94430.00
2024-04-18T03:49:39.748Z,94430.00
2024-04-18T03:50:39.802Z,94431.00
2024-04-18T03:51:39.932Z,94432.00
2024-04-18T03:52:40.037Z,94432.00
2024-04-18T03:53:40.114Z,94431.00
2024-04-18T03:54:55.733Z,94433.00
2024-04-18T03:55:41.167Z,94431.00
2024-04-18T03:56:40.192Z,94433.00
2024-04-18T03:57:40.227Z,94432.00
2024-04-18T03:58:40.177Z,94433.00
2024-04-18T03:59:40.206Z,94436.00
2024-04-18T04:00:42.792Z,94438.00
2024-04-18T04:01:40.232Z,94438.00
2024-04-18T04:02:40.373Z,94437.00
2024-04-18T04:03:40.273Z,94438.00
2024-04-18T04:04:40.195Z,94436.00
2024-04-18T04:05:40.185Z,94438.00
2024-04-18T04:06:40.230Z,94438.00
2024-04-18T04:07:40.228Z,94439.00
2024-04-18T04:08:40.202Z,94438.00
2024-04-18T04:09:40.258Z,94438.00
2024-04-18T04:10:40.217Z,94439.00
2024-04-18T04:11:40.214Z,94439.00
2024-04-18T04:12:40.240Z,94441.00
2024-04-18T04:13:40.230Z,94442.00
2024-04-18T04:14:40.213Z,94444.00
2024-04-18T04:15:40.266Z,94443.00
2024-04-18T04:16:40.227Z,94443.00
2024-04-18T04:17:40.304Z,94442.00
2024-04-18T04:18:40.341Z,94445.00
2024-04-18T04:19:40.203Z,94445.00
2024-04-18T04:20:40.229Z,94445.00
2024-04-18T04:21:40.248Z,94449.00
2024-04-18T04:22:40.276Z,94448.00
2024-04-18T04:23:40.246Z,94451.00
2024-04-18T04:24:40.263Z,94451.00
2024-04-18T04:25:40.242Z,94451.00
2024-04-18T04:26:40.239Z,94452.00
2024-04-18T04:27:40.272Z,94455.00
2024-04-18T04:28:40.255Z,94455.00
2024-04-18T04:29:40.266Z,94455.00
2024-04-18T04:30:40.353Z,94454.00
2024-04-18T04:31:40.277Z,94455.00
2024-04-18T04:32:40.284Z,94456.00
2024-04-18T04:33:40.351Z,94459.00
2024-04-18T04:34:40.251Z,94458.00
2024-04-18T04:35:40.283Z,94459.00
2024-04-18T04:36:40.339Z,94458.00
2024-04-18T04:37:40.256Z,94459.00
2024-04-18T04:38:40.283Z,94460.00
2024-04-18T04:39:40.371Z,94461.00
2024-04-18T04:40:40.447Z,94462.00
2024-04-18T04:41:40.573Z,94462.00
2024-04-18T04:42:40.651Z,94462.00
2024-04-18T04:43:40.706Z,94464.00
2024-04-18T04:44:48.486Z,94464.00
2024-04-18T04:45:48.581Z,94464.00
2024-04-18T04:46:48.482Z,94465.00
2024-04-18T04:47:48.542Z,94466.00
2024-04-18T04:48:48.532Z,94467.00
2024-04-18T04:49:48.479Z,94466.00
2024-04-18T04:50:48.479Z,94468.00
2024-04-18T04:51:48.590Z,94471.00
2024-04-18T04:52:48.490Z,94471.00
2024-04-18T04:53:50.553Z,94473.00
2024-04-18T04:54:48.796Z,94473.00
2024-04-18T04:55:48.513Z,94476.00
2024-04-18T04:56:48.523Z,94475.00
2024-04-18T04:57:48.504Z,94476.00
2024-04-18T04:58:48.518Z,94478.00
2024-04-18T04:59:48.517Z,94482.00
2024-04-18T05:01:11.120Z,94484.00
2024-04-18T05:01:48.499Z,94483.00
2024-04-18T05:02:49.991Z,94485.00
2024-04-18T05:03:48.601Z,94486.00
2024-04-18T05:04:48.512Z,94491.00
2024-04-18T05:05:48.517Z,94490.00
2024-04-18T05:06:48.606Z,94492.00
2024-04-18T05:07:49.575Z,94491.00
2024-04-18T05:08:48.517Z,94492.00
2024-04-18T05:09:48.613Z,94493.00
2024-04-18T05:10:48.580Z,94495.00
2024-04-18T05:11:48.545Z,94496.00
2024-04-18T05:12:48.622Z,94496.00
2024-04-18T05:13:48.546Z,94496.00
2024-04-18T05:14:48.578Z,94499.00
2024-04-18T05:15:48.641Z,94500.00
2024-04-18T05:16:48.764Z,94503.00
2024-04-18T05:17:48.749Z,94503.00
2024-04-18T05:18:48.837Z,94504.00
2024-04-18T05:19:48.844Z,94503.00
2024-04-18T05:20:48.931Z,94506.00
2024-04-18T05:21:49.241Z,94507.00
2024-04-18T05:22:49.160Z,94505.00
2024-04-18T05:23:49.245Z,94506.00
2024-04-18T05:24:49.543Z,94509.00
2024-04-18T05:25:49.443Z,94508.00
2024-04-18T05:26:49.530Z,94509.00
2024-04-18T05:27:49.698Z,94510.00
2024-04-18T05:28:49.761Z,94509.00
2024-04-18T05:29:49.829Z,94512.00
2024-04-18T05:30:50.062Z,94511.00
2024-04-18T05:31:50.053Z,94509.00
2024-04-18T05:32:50.277Z,94511.00
2024-04-18T05:33:50.246Z,94513.00
2024-04-18T05:34:50.343Z,94514.00
2024-04-18T05:35:50.484Z,94515.00
2024-04-18T05:36:50.659Z,94517.00
2024-04-18T05:37:50.684Z,94516.00
2024-04-18T05:38:50.695Z,94518.00
2024-04-18T05:39:50.801Z,94518.00
2024-04-18T05:40:50.878Z,94517.00
2024-04-18T05:41:50.963Z,94518.00
2024-04-18T05:42:51.095Z,94521.00
2024-04-18T05:43:51.048Z,94521.00
2024-04-18T05:44:51.124Z,94524.00
2024-04-18T05:46:13.732Z,94527.00
2024-04-18T05:46:51.210Z,94529.00
2024-04-18T05:47:51.261Z,94530.00
2024-04-18T05:48:51.277Z,94531.00
2024-04-18T05:49:51.219Z,94529.00
2024-04-18T05:50:51.206Z,94533.00
2024-04-18T05:51:51.213Z,94532.00
2024-04-18T05:52:52.784Z,94533.00
2024-04-18T05:53:51.237Z,94534.00
2024-04-18T05:54:51.605Z,94536.00
2024-04-18T05:55:52.135Z,94538.00
2024-04-18T05:56:51.219Z,94540.00
2024-04-18T05:57:52.298Z,94542.00
2024-04-18T05:58:51.229Z,94546.00
2024-04-18T05:59:51.236Z,94548.00
2024-04-18T06:00:51.280Z,94550.00
2024-04-18T06:01:51.284Z,94551.00
2024-04-18T06:02:51.750Z,94552.00
2024-04-18T06:03:51.448Z,94553.00
2024-04-18T06:04:51.316Z,94553.00
2024-04-18T06:05:51.278Z,94553.00
2024-04-18T06:06:52.294Z,94554.00
2024-04-18T06:07:51.763Z,94553.00
2024-04-18T06:08:51.303Z,94555.00
2024-04-18T06:09:51.369Z,94558.00
2024-04-18T06:10:51.327Z,94558.00
2024-04-18T06:11:51.331Z,94561.00
2024-04-18T06:12:51.504Z,94562.00
2024-04-18T06:13:51.535Z,94563.00
2024-04-18T06:14:51.611Z,94563.00
2024-04-18T06:15:51.839Z,94563.00
2024-04-18T06:16:51.775Z,94562.00
2024-04-18T06:17:51.866Z,94563.00
2024-04-18T06:18:52.344Z,94563.00
2024-04-18T06:19:52.031Z,94562.00
2024-04-18T06:20:52.113Z,94563.00
2024-04-18T06:21:53.816Z,94563.00
2024-04-18T06:22:52.255Z,94562.00
2024-04-18T06:23:52.738Z,94562.00
2024-04-18T06:24:52.341Z,94562.00
2024-04-18T06:25:52.483Z,94564.00
2024-04-18T06:26:52.402Z,94565.00
2024-04-18T06:27:52.563Z,94564.00
2024-04-18T06:28:52.577Z,94565.00
2024-04-18T06:29:52.580Z,94565.00
2024-04-18T06:30:52.682Z,94566.00
2024-04-18T06:31:52.645Z,94568.00
2024-04-18T06:32:52.739Z,94568.00
2024-04-18T06:33:52.813Z,94570.00
2024-04-18T06:34:52.748Z,94570.00
2024-04-18T06:35:52.822Z,94569.00
2024-04-18T06:36:52.923Z,94568.00
2024-04-18T06:37:52.900Z,94571.00
2024-04-18T06:38:52.950Z,94572.00
2024-04-18T06:39:52.982Z,94572.00
2024-04-18T06:40:53.102Z,94572.00
2024-04-18T06:41:53.142Z,94575.00
2024-04-18T06:42:53.336Z,94576.00
2024-04-18T06:43:53.722Z,94575.00
2024-04-18T06:44:53.439Z,94578.00
2024-04-18T06:45:53.652Z,94577.00
2024-04-18T06:47:00.429Z,94580.00
2024-04-18T06:47:54.767Z,94581.00
2024-04-18T06:48:53.640Z,94583.00
2024-04-18T06:49:53.638Z,94586.00
2024-04-18T06:50:53.750Z,94582.00
2024-04-18T06:51:53.706Z,94585.00
2024-04-18T06:52:53.692Z,94587.00
2024-04-18T06:53:53.765Z,94586.00
2024-04-18T06:54:53.651Z,94587.00
2024-04-18T06:55:53.634Z,94588.00
2024-04-18T06:56:53.684Z,94591.00
2024-04-18T06:57:54.035Z,94591.00
2024-04-18T06:58:53.895Z,94591.00
2024-04-18T06:59:53.994Z,94587.00
2024-04-18T07:00:54.272Z,94589.00
2024-04-18T07:01:54.163Z,94593.00
2024-04-18T07:02:54.299Z,94593.00
2024-04-18T07:03:54.517Z,94594.00
2024-04-18T07:04:54.387Z,94595.00
2024-04-18T07:05:54.399Z,94592.00
2024-04-18T07:06:54.542Z,94591.00
2024-04-18T07:07:54.456Z,94590.00
2024-04-18T07:08:54.794Z,94589.00
2024-04-18T07:09:54.523Z,94588.00
2024-04-18T07:10:54.855Z,94589.00
2024-04-18T07:11:54.643Z,94589.00
2024-04-18T07:12:54.692Z,94588.00
2024-04-18T07:13:54.656Z,94589.00
2024-04-18T07:14:55.706Z,94589.00
2024-04-18T07:15:54.848Z,94590.00
2024-04-18T07:16:54.854Z,94591.00
2024-04-18T07:17:54.987Z,94592.00
2024-04-18T07:18:55.262Z,94592.00
2024-04-18T07:19:55.111Z,94591.00
2024-04-18T07:20:55.227Z,94594.00
2024-04-18T07:21:55.489Z,94595.00
2024-04-18T07:22:55.513Z,94596.00
2024-04-18T07:23:57.161Z,94595.00
2024-04-18T07:24:55.547Z,94599.00
2024-04-18T07:25:55.490Z,94599.00
2024-04-18T07:26:56.927Z,94598.00
2024-04-18T07:27:55.594Z,94599.00
2024-04-18T07:28:55.536Z,94602.00
2024-04-18T07:29:55.553Z,94601.00
2024-04-18T07:30:55.561Z,94604.00
2024-04-18T07:31:55.541Z,94604.00
2024-04-18T07:32:55.650Z,94602.00
2024-04-18T07:33:55.885Z,94606.00
2024-04-18T07:34:55.553Z,94603.00
2024-04-18T07:35:55.502Z,94603.00
2024-04-18T07:36:55.604Z,94605.00
2024-04-18T07:37:55.490Z,94603.00
2024-04-18T07:38:55.817Z,94607.00
2024-04-18T07:39:55.589Z,94608.00
2024-04-18T07:40:55.527Z,94607.00
2024-04-18T07:41:55.515Z,94606.00
2024-04-18T07:42:55.777Z,94609.00
2024-04-18T07:43:55.726Z,94610.00
2024-04-18T07:44:55.821Z,94608.00
2024-04-18T07:45:55.982Z,94608.00
2024-04-18T07:46:56.021Z,94611.00
2024-04-18T07:47:56.130Z,94610.00
2024-04-18T07:48:56.318Z,94608.00
2024-04-18T07:49:56.221Z,94610.00
2024-04-18T07:50:56.309Z,94612.00
2024-04-18T07:51:57.583Z,94615.00
2024-04-18T07:53:03.781Z,94615.00
2024-04-18T07:53:57.461Z,94617.00
2024-04-18T07:54:56.569Z,94619.00
2024-04-18T07:55:56.450Z,94618.00
2024-04-18T07:56:57.049Z,94616.00
2024-04-18T07:57:56.968Z,94618.00
2024-04-18T07:58:57.038Z,94619.00
2024-04-18T07:59:57.120Z,94620.00
2024-04-18T08:00:57.618Z,94621.00
2024-04-18T08:01:58.204Z,94620.00
2024-04-18T08:02:58.375Z,94623.00
2024-04-18T08:04:09.024Z,94621.00
2024-04-18T08:05:00.493Z,94624.00
2024-04-18T08:06:00.262Z,94623.00
2024-04-18T08:06:58.848Z,94623.00
2024-04-18T08:07:59.911Z,94624.00
2024-04-18T08:08:58.947Z,94626.00
2024-04-18T08:10:00.153Z,94626.00
2024-04-18T08:11:15.473Z,94629.00
2024-04-18T08:13:00.503Z,94630.00
2024-04-18T08:14:00.204Z,94632.00
2024-04-18T08:15:00.867Z,94633.00
2024-04-18T08:17:32.073Z,94635.00
2024-04-18T08:18:31.846Z,94635.00
2024-04-18T08:19:31.826Z,94634.00
2024-04-18T08:20:31.801Z,94637.00
2024-04-18T08:21:31.935Z,94637.00
2024-04-18T08:22:31.801Z,94638.00
2024-04-18T08:23:31.796Z,94639.00
2024-04-18T08:24:31.827Z,94641.00
2024-04-18T08:25:31.815Z,94641.00
2024-04-18T08:26:31.836Z,94639.00
2024-04-18T08:27:31.873Z,94643.00
2024-04-18T08:28:31.839Z,94644.00
2024-04-18T08:29:31.841Z,94646.00
2024-04-18T08:30:31.837Z,94647.00
2024-04-18T08:31:31.867Z,94649.00
2024-04-18T08:32:31.870Z,94653.00
2024-04-18T08:33:32.012Z,94655.00
2024-04-18T08:34:33.178Z,94658.00
2024-04-18T08:35:31.824Z,94659.00
2024-04-18T08:36:31.941Z,94658.00
2024-04-18T08:37:31.883Z,94660.00
2024-04-18T08:38:31.988Z,94658.00
2024-04-18T08:39:32.140Z,94658.00
2024-04-18T08:40:31.860Z,94657.00
2024-04-18T08:41:35.212Z,94656.00
2024-04-18T08:42:32.017Z,94656.00
2024-04-18T08:43:31.914Z,94656.00
2024-04-18T08:44:32.010Z,94658.00
2024-04-18T08:45:31.995Z,94658.00
2024-04-18T08:46:31.927Z,94656.00
2024-04-18T08:47:32.899Z,94658.00
2024-04-18T08:48:32.124Z,94659.00
2024-04-18T08:49:32.478Z,94656.00
2024-04-18T08:50:32.045Z,94659.00
2024-04-18T08:51:32.096Z,94658.00
2024-04-18T08:52:35.044Z,94659.00
2024-04-18T08:53:32.076Z,94658.00
2024-04-18T08:54:32.520Z,94664.00
2024-04-18T08:55:32.079Z,94663.00
2024-04-18T08:56:32.066Z,94665.00
2024-04-18T08:57:32.175Z,94670.00
2024-04-18T08:58:32.059Z,94669.00
2024-04-18T08:59:32.463Z,94670.00
2024-04-18T09:00:32.112Z,94673.00
2024-04-18T09:01:32.079Z,94674.00
2024-04-18T09:02:32.159Z,94671.00
2024-04-18T09:03:32.159Z,94674.00
2024-04-18T09:04:32.128Z,94673.00
2024-04-18T09:05:33.208Z,94670.00
2024-04-18T09:06:32.171Z,94669.00
2024-04-18T09:07:32.082Z,94666.00
2024-04-18T09:08:32.114Z,94669.00
2024-04-18T09:09:32.578Z,94668.00
2024-04-18T09:10:32.929Z,94668.00
2024-04-18T09:11:33.791Z,94665.00
2024-04-18T09:12:32.140Z,94666.00
2024-04-18T09:13:32.115Z,94666.00
2024-04-18T09:14:32.108Z,94664.00
2024-04-18T09:15:32.164Z,94664.00
2024-04-18T09:16:32.108Z,94662.00
2024-04-18T09:17:32.192Z,94662.00
2024-04-18T09:18:32.172Z,94661.00
2024-04-18T09:19:32.127Z,94663.00
2024-04-18T09:20:32.104Z,94666.00
2024-04-18T09:21:33.004Z,94664.00
2024-04-18T09:22:32.129Z,94667.00
2024-04-18T09:23:32.131Z,94668.00
2024-04-18T09:24:32.661Z,94670.00
2024-04-18T09:25:34.598Z,94671.00
2024-04-18T09:26:32.194Z,94674.00
2024-04-18T09:27:32.259Z,94675.00
2024-04-18T09:28:32.196Z,94674.00
2024-04-18T09:29:32.170Z,94672.00
2024-04-18T09:30:32.216Z,94674.00
2024-04-18T09:31:38.301Z,94673.00
2024-04-18T09:32:33.248Z,94670.00
2024-04-18T09:33:32.332Z,94674.00
2024-04-18T09:34:32.178Z,94671.00
2024-04-18T09:35:34.590Z,94672.00
2024-04-18T09:36:32.268Z,94672.00
2024-04-18T09:37:32.296Z,94668.00
2024-04-18T09:38:32.330Z,94670.00
2024-04-18T09:39:32.406Z,94671.00
2024-04-18T09:40:32.411Z,94671.00
2024-04-18T09:41:32.499Z,94669.00
2024-04-18T09:42:32.582Z,94671.00
2024-04-18T09:43:32.553Z,94673.00
2024-04-18T09:44:33.036Z,94672.00
2024-04-18T09:45:32.606Z,94673.00
2024-04-18T09:46:32.672Z,94672.00
2024-04-18T09:47:32.701Z,94673.00
2024-04-18T09:48:32.820Z,94677.00
2024-04-18T09:49:32.840Z,94675.00
2024-04-18T09:50:32.755Z,94679.00
2024-04-18T09:51:32.913Z,94679.00
2024-04-18T09:52:32.840Z,94677.00
2024-04-18T09:53:32.995Z,94674.00
2024-04-18T09:54:33.610Z,94672.00
2024-04-18T09:55:33.176Z,94675.00
2024-04-18T09:56:33.155Z,94674.00
2024-04-18T09:57:33.307Z,94671.00
2024-04-18T09:58:33.330Z,94673.00
2024-04-18T09:59:33.533Z,94671.00
2024-04-18T10:00:33.528Z,94674.00
2024-04-18T10:01:33.714Z,94671.00
2024-04-18T10:02:33.746Z,94675.00
2024-04-18T10:03:33.933Z,94671.00
2024-04-18T10:04:33.906Z,94672.00
2024-04-18T10:05:34.036Z,94670.00
2024-04-18T10:06:34.192Z,94670.00
2024-04-18T10:07:34.212Z,94672.00
2024-04-18T10:08:34.276Z,94669.00
2024-04-18T10:09:34.508Z,94669.00
2024-04-18T10:10:34.495Z,94667.00
2024-04-18T10:11:34.615Z,94669.00
2024-04-18T10:12:34.743Z,94669.00
2024-04-18T10:13:40.928Z,94667.00
2024-04-18T10:14:34.786Z,94669.00
2024-04-18T10:15:37.426Z,94670.00
2024-04-18T10:16:35.432Z,94673.00
2024-04-18T10:17:34.805Z,94670.00
2024-04-18T10:18:34.895Z,94668.00
2024-04-18T10:19:35.107Z,94665.00
2024-04-18T10:20:34.788Z,94670.00
2024-04-18T10:21:43.171Z,94669.00
2024-04-18T10:23:35.443Z,94668.00
2024-04-18T10:24:34.836Z,94668.00
2024-04-18T10:25:35.060Z,94668.00
2024-04-18T10:26:34.877Z,94665.00
2024-04-18T10:27:35.160Z,94669.00
2024-04-18T10:28:34.825Z,94669.00
2024-04-18T10:29:34.851Z,94671.00
2024-04-18T10:30:35.065Z,94672.00
2024-04-18T10:31:34.934Z,94670.00
2024-04-18T10:32:34.895Z,94670.00
2024-04-18T10:33:34.981Z,94670.00
2024-04-18T10:34:35.075Z,94667.00
2024-04-18T10:35:35.049Z,94666.00
2024-04-18T10:36:34.871Z,94664.00
2024-04-18T10:37:34.836Z,94661.00
2024-04-18T10:38:34.941Z,94665.00
2024-04-18T10:39:35.088Z,94664.00
2024-04-18T10:40:35.583Z,94665.00
2024-04-18T10:41:35.164Z,94668.00
2024-04-18T10:42:35.377Z,94665.00
2024-04-18T10:43:35.388Z,94663.00
2024-04-18T10:44:35.447Z,94666.00
2024-04-18T10:45:35.589Z,94668.00
2024-04-18T10:46:35.660Z,94665.00
2024-04-18T10:47:35.883Z,94665.00
2024-04-18T10:48:36.102Z,94663.00
2024-04-18T10:49:35.996Z,94663.00
2024-04-18T10:50:36.178Z,94660.00
2024-04-18T10:51:36.260Z,94663.00
2024-04-18T10:52:37.140Z,94661.00
2024-04-18T10:53:36.120Z,94666.00
2024-04-18T10:54:36.229Z,94664.00
2024-04-18T10:55:36.123Z,94661.00
2024-04-18T10:56:36.176Z,94665.00
2024-04-18T10:57:36.140Z,94665.00
2024-04-18T10:58:36.147Z,94665.00
2024-04-18T10:59:36.154Z,94666.00
2024-04-18T11:00:36.172Z,94664.00
2024-04-18T11:01:36.973Z,94664.00
2024-04-18T11:02:36.191Z,94660.00
2024-04-18T11:03:36.367Z,94657.00
2024-04-18T11:04:36.258Z,94657.00
2024-04-18T11:05:36.561Z,94663.00
2024-04-18T11:06:36.448Z,94666.00
2024-04-18T11:07:36.598Z,94664.00
2024-04-18T11:08:36.619Z,94665.00
2024-04-18T11:09:36.704Z,94664.00
2024-04-18T11:10:37.034Z,94665.00
2024-04-18T11:11:37.148Z,94662.00
2024-04-18T11:12:37.006Z,94670.00
2024-04-18T11:13:37.060Z,94664.00
2024-04-18T11:14:37.144Z,94664.00
2024-04-18T11:15:37.804Z,94659.00
2024-04-18T11:16:37.318Z,94662.00
2024-04-18T11:17:37.384Z,94663.00
2024-04-18T11:18:37.521Z,94663.00
2024-04-18T11:19:37.381Z,94666.00
2024-04-18T11:20:37.404Z,94667.00
2024-04-18T11:21:37.524Z,94662.00
2024-04-18T11:22:37.486Z,94660.00
2024-04-18T11:23:44.536Z,94662.00
2024-04-18T11:24:38.567Z,94660.00
2024-04-18T11:25:37.575Z,94657.00
2024-04-18T11:26:37.523Z,94658.00
2024-04-18T11:27:37.540Z,94659.00
2024-04-18T11:28:37.538Z,94658.00
2024-04-18T11:29:37.549Z,94655.00
2024-04-18T11:30:37.578Z,94653.00
2024-04-18T11:31:37.583Z,94657.00
2024-04-18T11:32:37.682Z,94656.00
2024-04-18T11:33:37.664Z,94652.00
2024-04-18T11:34:37.583Z,94653.00
2024-04-18T11:35:38.054Z,94654.00
2024-04-18T11:36:37.914Z,94657.00
2024-04-18T11:37:37.895Z,94649.00
2024-04-18T11:38:37.976Z,94653.00
2024-04-18T11:39:38.123Z,94654.00
2024-04-18T11:40:38.161Z,94651.00
2024-04-18T11:41:38.253Z,94650.00
2024-04-18T11:42:38.377Z,94655.00
2024-04-18T11:43:38.469Z,94656.00
2024-04-18T11:44:38.586Z,94653.00
2024-04-18T11:45:38.744Z,94652.00
2024-04-18T11:46:38.728Z,94648.00
2024-04-18T11:47:38.972Z,94648.00
2024-04-18T11:48:39.067Z,94644.00